sensor_id;sensor_type;location;lat;lon;timestamp;P1;P2;P0
55485;PMS5003;71262;-25.924;28.194;2023-10-31T00:00:14;1;1;
55485;PMS5003;71262;-25.924;28.194;2023-10-31T00:02:39;0;0;
55485;PMS5003;71262;-25.924;28.194;2023-10-31T00:05:04;0;0;
55485;PMS5003;71262;-25.924;28.194;2023-10-31T00:07:29;1;1;
55485;PMS5003;71262;-25.924;28.194;2023-10-31T00:09:54;1;1;
55485;PMS5003;71262;-25.924;28.194;2023-10-31T00:12:19;0;0;
55485;PMS5003;71262;-25.924;28.194;2023-10-31T00:14:44;0;0;
55485;PMS5003;71262;-25.924;28.194;2023-10-31T00:17:09;0;0;
55485;PMS5003;71262;-25.924;28.194;2023-10-31T00:19:34;0;0;
55485;PMS5003;71262;-25.924;28.194;2023-10-31T00:21:59;0;0;
55485;PMS5003;71262;-25.924;28.194;2023-10-31T00:24:24;1;1;
55485;PMS5003;71262;-25.924;28.194;2023-10-31T00:26:49;1;1;
55485;PMS5003;71262;-25.924;28.194;2023-10-31T00:29:14;1;1;
55485;PMS5003;71262;-25.924;28.194;2023-10-31T00:31:39;1;1;
55485;PMS5003;71262;-25.924;28.194;2023-10-31T00:34:04;2;1;
55485;PMS5003;71262;-25.924;28.194;2023-10-31T00:36:30;0;0;
55485;PMS5003;71262;-25.924;28.194;2023-10-31T00:38:55;0;0;
55485;PMS5003;71262;-25.924;28.194;2023-10-31T00:41:20;1;1;
55485;PMS5003;71262;-25.924;28.194;2023-10-31T00:43:45;1;0;
55485;PMS5003;71262;-25.924;28.194;2023-10-31T00:46:10;1;1;
55485;PMS5003;71262;-25.924;28.194;2023-10-31T00:48:35;1;0;
55485;PMS5003;71262;-25.924;28.194;2023-10-31T00:51:00;1;1;
55485;PMS5003;71262;-25.924;28.194;2023-10-31T00:53:25;1;1;
55485;PMS5003;71262;-25.924;28.194;2023-10-31T00:55:50;1;1;
55485;PMS5003;71262;-25.924;28.194;2023-10-31T00:58:15;0;0;
55485;PMS5003;71262;-25.924;28.194;2023-10-31T01:00:40;0;0;
55485;PMS5003;71262;-25.924;28.194;2023-10-31T01:03:05;1;1;
55485;PMS5003;71262;-25.924;28.194;2023-10-31T01:05:30;0;0;
55485;PMS5003;71262;-25.924;28.194;2023-10-31T01:07:55;1;1;
55485;PMS5003;71262;-25.924;28.194;2023-10-31T01:10:21;1;1;
55485;PMS5003;71262;-25.924;28.194;2023-10-31T01:12:46;1;1;
55485;PMS5003;71262;-25.924;28.194;2023-10-31T01:15:11;1;1;
55485;PMS5003;71262;-25.924;28.194;2023-10-31T01:17:36;0;0;
55485;PMS5003;71262;-25.924;28.194;2023-10-31T01:20:01;1;1;
55485;PMS5003;71262;-25.924;28.194;2023-10-31T01:22:26;0;0;
55485;PMS5003;71262;-25.924;28.194;2023-10-31T01:24:51;1;1;
55485;PMS5003;71262;-25.924;28.194;2023-10-31T01:27:16;0;0;
55485;PMS5003;71262;-25.924;28.194;2023-10-31T01:29:41;1;1;
55485;PMS5003;71262;-25.924;28.194;2023-10-31T01:32:06;0;0;
55485;PMS5003;71262;-25.924;28.194;2023-10-31T01:34:31;1;0;
55485;PMS5003;71262;-25.924;28.194;2023-10-31T01:36:57;1;0;
55485;PMS5003;71262;-25.924;28.194;2023-10-31T01:39:22;0;0;
55485;PMS5003;71262;-25.924;28.194;2023-10-31T01:41:47;0;0;
55485;PMS5003;71262;-25.924;28.194;2023-10-31T01:44:12;0;0;
55485;PMS5003;71262;-25.924;28.194;2023-10-31T01:46:37;1;1;
55485;PMS5003;71262;-25.924;28.194;2023-10-31T01:49:02;1;1;
55485;PMS5003;71262;-25.924;28.194;2023-10-31T01:51:27;0;0;
55485;PMS5003;71262;-25.924;28.194;2023-10-31T01:53:52;2;1;
55485;PMS5003;71262;-25.924;28.194;2023-10-31T01:56:17;1;1;
55485;PMS5003;71262;-25.924;28.194;2023-10-31T01:58:42;1;1;
55485;PMS5003;71262;-25.924;28.194;2023-10-31T02:01:07;1;1;
55485;PMS5003;71262;-25.924;28.194;2023-10-31T02:03:32;2;1;
55485;PMS5003;71262;-25.924;28.194;2023-10-31T02:05:58;1;1;
55485;PMS5003;71262;-25.924;28.194;2023-10-31T02:08:23;1;1;
55485;PMS5003;71262;-25.924;28.194;2023-10-31T02:10:48;1;0;
55485;PMS5003;71262;-25.924;28.194;2023-10-31T02:13:13;1;1;
55485;PMS5003;71262;-25.924;28.194;2023-10-31T02:15:38;1;1;
55485;PMS5003;71262;-25.924;28.194;2023-10-31T02:18:03;1;1;
55485;PMS5003;71262;-25.924;28.194;2023-10-31T02:20:28;0;0;
55485;PMS5003;71262;-25.924;28.194;2023-10-31T02:22:53;0;0;
55485;PMS5003;71262;-25.924;28.194;2023-10-31T02:25:18;0;0;
55485;PMS5003;71262;-25.924;28.194;2023-10-31T02:27:43;1;1;
55485;PMS5003;71262;-25.924;28.194;2023-10-31T02:30:09;1;1;
55485;PMS5003;71262;-25.924;28.194;2023-10-31T02:32:33;0;0;
55485;PMS5003;71262;-25.924;28.194;2023-10-31T02:34:59;0;0;
55485;PMS5003;71262;-25.924;28.194;2023-10-31T02:37:24;1;1;
55485;PMS5003;71262;-25.924;28.194;2023-10-31T02:39:49;0;0;
55485;PMS5003;71262;-25.924;28.194;2023-10-31T02:42:14;0;0;
55485;PMS5003;71262;-25.924;28.194;2023-10-31T02:44:39;0;0;
55485;PMS5003;71262;-25.924;28.194;2023-10-31T02:47:04;0;0;
55485;PMS5003;71262;-25.924;28.194;2023-10-31T02:49:29;1;1;
55485;PMS5003;71262;-25.924;28.194;2023-10-31T02:51:54;0;0;
55485;PMS5003;71262;-25.924;28.194;2023-10-31T02:54:19;0;0;
55485;PMS5003;71262;-25.924;28.194;2023-10-31T02:56:44;1;1;
55485;PMS5003;71262;-25.924;28.194;2023-10-31T02:59:09;1;1;
55485;PMS5003;71262;-25.924;28.194;2023-10-31T03:01:35;0;0;
55485;PMS5003;71262;-25.924;28.194;2023-10-31T03:03:59;1;1;
55485;PMS5003;71262;-25.924;28.194;2023-10-31T03:06:25;1;1;
55485;PMS5003;71262;-25.924;28.194;2023-10-31T03:08:50;1;1;
55485;PMS5003;71262;-25.924;28.194;2023-10-31T03:13:40;0;0;
55485;PMS5003;71262;-25.924;28.194;2023-10-31T03:16:05;1;1;
55485;PMS5003;71262;-25.924;28.194;2023-10-31T03:18:30;1;1;
55485;PMS5003;71262;-25.924;28.194;2023-10-31T03:20:55;0;0;
55485;PMS5003;71262;-25.924;28.194;2023-10-31T03:23:20;1;1;
55485;PMS5003;71262;-25.924;28.194;2023-10-31T03:25:45;0;0;
55485;PMS5003;71262;-25.924;28.194;2023-10-31T03:30:36;0;0;
55485;PMS5003;71262;-25.924;28.194;2023-10-31T03:33:00;1;1;
55485;PMS5003;71262;-25.924;28.194;2023-10-31T03:35:26;1;1;
55485;PMS5003;71262;-25.924;28.194;2023-10-31T03:37:51;1;1;
55485;PMS5003;71262;-25.924;28.194;2023-10-31T03:40:16;0;0;
55485;PMS5003;71262;-25.924;28.194;2023-10-31T03:42:41;0;0;
55485;PMS5003;71262;-25.924;28.194;2023-10-31T03:45:06;2;1;
55485;PMS5003;71262;-25.924;28.194;2023-10-31T03:47:31;1;1;
55485;PMS5003;71262;-25.924;28.194;2023-10-31T03:49:56;1;1;
55485;PMS5003;71262;-25.924;28.194;2023-10-31T03:52:21;1;1;
55485;PMS5003;71262;-25.924;28.194;2023-10-31T03:54:46;1;1;
55485;PMS5003;71262;-25.924;28.194;2023-10-31T03:57:11;1;1;
55485;PMS5003;71262;-25.924;28.194;2023-10-31T03:59:37;0;0;
55485;PMS5003;71262;-25.924;28.194;2023-10-31T04:02:02;0;0;
55485;PMS5003;71262;-25.924;28.194;2023-10-31T04:04:26;0;0;
55485;PMS5003;71262;-25.924;28.194;2023-10-31T04:06:52;0;0;
55485;PMS5003;71262;-25.924;28.194;2023-10-31T04:09:17;2;1;
55485;PMS5003;71262;-25.924;28.194;2023-10-31T04:11:42;0;0;
55485;PMS5003;71262;-25.924;28.194;2023-10-31T04:14:07;0;0;
55485;PMS5003;71262;-25.924;28.194;2023-10-31T04:16:32;0;0;
55485;PMS5003;71262;-25.924;28.194;2023-10-31T04:18:57;0;0;
55485;PMS5003;71262;-25.924;28.194;2023-10-31T04:21:22;0;0;
55485;PMS5003;71262;-25.924;28.194;2023-10-31T04:23:47;0;0;
55485;PMS5003;71262;-25.924;28.194;2023-10-31T04:26:12;1;0;
55485;PMS5003;71262;-25.924;28.194;2023-10-31T04:28:37;0;0;
55485;PMS5003;71262;-25.924;28.194;2023-10-31T04:31:03;0;0;
55485;PMS5003;71262;-25.924;28.194;2023-10-31T04:33:27;1;1;
55485;PMS5003;71262;-25.924;28.194;2023-10-31T04:35:53;0;0;
55485;PMS5003;71262;-25.924;28.194;2023-10-31T04:38:18;0;0;
55485;PMS5003;71262;-25.924;28.194;2023-10-31T04:40:43;0;0;
55485;PMS5003;71262;-25.924;28.194;2023-10-31T04:43:08;0;0;
55485;PMS5003;71262;-25.924;28.194;2023-10-31T04:45:33;0;0;
55485;PMS5003;71262;-25.924;28.194;2023-10-31T04:47:58;1;1;
55485;PMS5003;71262;-25.924;28.194;2023-10-31T04:50:23;0;0;
55485;PMS5003;71262;-25.924;28.194;2023-10-31T04:52:48;0;0;
55485;PMS5003;71262;-25.924;28.194;2023-10-31T04:55:14;1;1;
55485;PMS5003;71262;-25.924;28.194;2023-10-31T04:57:38;1;1;
55485;PMS5003;71262;-25.924;28.194;2023-10-31T05:00:04;1;0;
55485;PMS5003;71262;-25.924;28.194;2023-10-31T05:02:28;0;0;
55485;PMS5003;71262;-25.924;28.194;2023-10-31T05:04:53;0;0;
55485;PMS5003;71262;-25.924;28.194;2023-10-31T05:07:19;0;0;
55485;PMS5003;71262;-25.924;28.194;2023-10-31T05:09:44;0;0;
55485;PMS5003;71262;-25.924;28.194;2023-10-31T05:12:09;0;0;
55485;PMS5003;71262;-25.924;28.194;2023-10-31T05:14:34;0;0;
55485;PMS5003;71262;-25.924;28.194;2023-10-31T05:16:59;0;0;
55485;PMS5003;71262;-25.924;28.194;2023-10-31T05:19:24;1;1;
55485;PMS5003;71262;-25.924;28.194;2023-10-31T05:21:49;0;0;
55485;PMS5003;71262;-25.924;28.194;2023-10-31T05:24:14;0;0;
55485;PMS5003;71262;-25.924;28.194;2023-10-31T05:26:39;0;0;
55485;PMS5003;71262;-25.924;28.194;2023-10-31T05:29:04;0;0;
55485;PMS5003;71262;-25.924;28.194;2023-10-31T05:31:29;0;0;
55485;PMS5003;71262;-25.924;28.194;2023-10-31T05:33:55;2;2;
55485;PMS5003;71262;-25.924;28.194;2023-10-31T05:36:20;0;0;
55485;PMS5003;71262;-25.924;28.194;2023-10-31T05:38:45;0;0;
55485;PMS5003;71262;-25.924;28.194;2023-10-31T05:41:10;1;1;
55485;PMS5003;71262;-25.924;28.194;2023-10-31T05:43:35;0;0;
55485;PMS5003;71262;-25.924;28.194;2023-10-31T05:46:00;0;0;
55485;PMS5003;71262;-25.924;28.194;2023-10-31T05:48:25;1;1;
55485;PMS5003;71262;-25.924;28.194;2023-10-31T05:50:50;0;0;
55485;PMS5003;71262;-25.924;28.194;2023-10-31T05:53:15;1;1;
55485;PMS5003;71262;-25.924;28.194;2023-10-31T05:55:41;1;1;
55485;PMS5003;71262;-25.924;28.194;2023-10-31T05:58:05;0;0;
55485;PMS5003;71262;-25.924;28.194;2023-10-31T06:00:30;1;1;
55485;PMS5003;71262;-25.924;28.194;2023-10-31T06:02:55;0;0;
55485;PMS5003;71262;-25.924;28.194;2023-10-31T06:05:21;1;1;
55485;PMS5003;71262;-25.924;28.194;2023-10-31T06:07:46;1;1;
55485;PMS5003;71262;-25.924;28.194;2023-10-31T06:10:11;1;0;
55485;PMS5003;71262;-25.924;28.194;2023-10-31T06:12:36;0;0;
55485;PMS5003;71262;-25.924;28.194;2023-10-31T06:15:01;0;0;
55485;PMS5003;71262;-25.924;28.194;2023-10-31T06:17:26;0;0;
55485;PMS5003;71262;-25.924;28.194;2023-10-31T06:19:51;1;1;
55485;PMS5003;71262;-25.924;28.194;2023-10-31T06:22:16;0;0;
55485;PMS5003;71262;-25.924;28.194;2023-10-31T06:24:41;1;0;
55485;PMS5003;71262;-25.924;28.194;2023-10-31T06:27:06;1;1;
55485;PMS5003;71262;-25.924;28.194;2023-10-31T06:29:31;0;0;
55485;PMS5003;71262;-25.924;28.194;2023-10-31T06:31:56;2;2;
55485;PMS5003;71262;-25.924;28.194;2023-10-31T06:34:21;2;1;
55485;PMS5003;71262;-25.924;28.194;2023-10-31T06:36:47;1;1;
55485;PMS5003;71262;-25.924;28.194;2023-10-31T06:39:12;2;1;
55485;PMS5003;71262;-25.924;28.194;2023-10-31T06:41:37;2;1;
55485;PMS5003;71262;-25.924;28.194;2023-10-31T06:44:02;3;1;
55485;PMS5003;71262;-25.924;28.194;2023-10-31T06:46:27;1;1;
55485;PMS5003;71262;-25.924;28.194;2023-10-31T06:48:52;1;1;
55485;PMS5003;71262;-25.924;28.194;2023-10-31T06:51:17;1;1;
55485;PMS5003;71262;-25.924;28.194;2023-10-31T06:53:42;1;1;
55485;PMS5003;71262;-25.924;28.194;2023-10-31T06:56:07;1;1;
55485;PMS5003;71262;-25.924;28.194;2023-10-31T06:58:32;1;1;
55485;PMS5003;71262;-25.924;28.194;2023-10-31T07:00:57;1;0;
55485;PMS5003;71262;-25.924;28.194;2023-10-31T07:03:22;0;0;
55485;PMS5003;71262;-25.924;28.194;2023-10-31T07:05:47;0;0;
55485;PMS5003;71262;-25.924;28.194;2023-10-31T07:08:13;1;0;
55485;PMS5003;71262;-25.924;28.194;2023-10-31T07:10:38;2;1;
55485;PMS5003;71262;-25.924;28.194;2023-10-31T07:13:03;0;0;
55485;PMS5003;71262;-25.924;28.194;2023-10-31T07:15:28;0;0;
55485;PMS5003;71262;-25.924;28.194;2023-10-31T07:17:53;1;1;
55485;PMS5003;71262;-25.924;28.194;2023-10-31T07:20:18;1;1;
55485;PMS5003;71262;-25.924;28.194;2023-10-31T07:22:43;1;1;
55485;PMS5003;71262;-25.924;28.194;2023-10-31T07:25:08;0;0;
55485;PMS5003;71262;-25.924;28.194;2023-10-31T07:27:33;2;1;
55485;PMS5003;71262;-25.924;28.194;2023-10-31T07:29:58;1;1;
55485;PMS5003;71262;-25.924;28.194;2023-10-31T07:32:23;0;0;
55485;PMS5003;71262;-25.924;28.194;2023-10-31T07:34:48;1;1;
55485;PMS5003;71262;-25.924;28.194;2023-10-31T07:37:14;1;0;
55485;PMS5003;71262;-25.924;28.194;2023-10-31T07:39:39;3;0;
55485;PMS5003;71262;-25.924;28.194;2023-10-31T07:42:04;2;1;
55485;PMS5003;71262;-25.924;28.194;2023-10-31T07:44:29;2;1;
55485;PMS5003;71262;-25.924;28.194;2023-10-31T07:46:54;1;1;
55485;PMS5003;71262;-25.924;28.194;2023-10-31T07:49:19;1;1;
55485;PMS5003;71262;-25.924;28.194;2023-10-31T07:51:44;3;2;
55485;PMS5003;71262;-25.924;28.194;2023-10-31T07:54:09;1;0;
55485;PMS5003;71262;-25.924;28.194;2023-10-31T07:56:34;2;2;
55485;PMS5003;71262;-25.924;28.194;2023-10-31T07:58:59;1;1;
55485;PMS5003;71262;-25.924;28.194;2023-10-31T08:01:24;1;1;
55485;PMS5003;71262;-25.924;28.194;2023-10-31T08:03:49;1;0;
55485;PMS5003;71262;-25.924;28.194;2023-10-31T08:06:15;1;1;
55485;PMS5003;71262;-25.924;28.194;2023-10-31T08:08:40;3;2;
55485;PMS5003;71262;-25.924;28.194;2023-10-31T08:11:07;3;2;
55485;PMS5003;71262;-25.924;28.194;2023-10-31T08:13:30;1;1;
55485;PMS5003;71262;-25.924;28.194;2023-10-31T08:15:55;2;2;
55485;PMS5003;71262;-25.924;28.194;2023-10-31T08:18:21;2;2;
55485;PMS5003;71262;-25.924;28.194;2023-10-31T08:20:45;3;2;
55485;PMS5003;71262;-25.924;28.194;2023-10-31T08:23:10;3;2;
55485;PMS5003;71262;-25.924;28.194;2023-10-31T08:25:35;2;1;
55485;PMS5003;71262;-25.924;28.194;2023-10-31T08:28:00;1;1;
55485;PMS5003;71262;-25.924;28.194;2023-10-31T08:30:25;1;1;
55485;PMS5003;71262;-25.924;28.194;2023-10-31T08:32:51;2;1;
55485;PMS5003;71262;-25.924;28.194;2023-10-31T08:35:16;0;0;
55485;PMS5003;71262;-25.924;28.194;2023-10-31T08:37:41;2;2;
55485;PMS5003;71262;-25.924;28.194;2023-10-31T08:40:06;2;2;
55485;PMS5003;71262;-25.924;28.194;2023-10-31T08:42:31;1;1;
55485;PMS5003;71262;-25.924;28.194;2023-10-31T08:44:56;1;1;
55485;PMS5003;71262;-25.924;28.194;2023-10-31T08:47:21;2;2;
55485;PMS5003;71262;-25.924;28.194;2023-10-31T08:49:46;2;1;
55485;PMS5003;71262;-25.924;28.194;2023-10-31T08:52:11;1;1;
55485;PMS5003;71262;-25.924;28.194;2023-10-31T08:54:37;1;1;
55485;PMS5003;71262;-25.924;28.194;2023-10-31T08:57:01;1;1;
55485;PMS5003;71262;-25.924;28.194;2023-10-31T08:59:26;1;1;
55485;PMS5003;71262;-25.924;28.194;2023-10-31T09:01:51;2;1;
55485;PMS5003;71262;-25.924;28.194;2023-10-31T09:04:17;0;0;
55485;PMS5003;71262;-25.924;28.194;2023-10-31T09:06:41;0;0;
55485;PMS5003;71262;-25.924;28.194;2023-10-31T09:09:07;0;0;
55485;PMS5003;71262;-25.924;28.194;2023-10-31T09:11:32;3;3;
55485;PMS5003;71262;-25.924;28.194;2023-10-31T09:13:57;1;1;
55485;PMS5003;71262;-25.924;28.194;2023-10-31T09:16:22;2;1;
55485;PMS5003;71262;-25.924;28.194;2023-10-31T09:18:47;0;0;
55485;PMS5003;71262;-25.924;28.194;2023-10-31T09:21:12;1;1;
55485;PMS5003;71262;-25.924;28.194;2023-10-31T09:23:37;0;0;
55485;PMS5003;71262;-25.924;28.194;2023-10-31T09:26:02;0;0;
55485;PMS5003;71262;-25.924;28.194;2023-10-31T09:28:27;0;0;
55485;PMS5003;71262;-25.924;28.194;2023-10-31T09:30:52;1;1;
55485;PMS5003;71262;-25.924;28.194;2023-10-31T09:33:17;0;0;
55485;PMS5003;71262;-25.924;28.194;2023-10-31T09:35:43;1;1;
55485;PMS5003;71262;-25.924;28.194;2023-10-31T09:38:07;1;1;
55485;PMS5003;71262;-25.924;28.194;2023-10-31T09:40:32;1;1;
55485;PMS5003;71262;-25.924;28.194;2023-10-31T09:42:58;0;0;
55485;PMS5003;71262;-25.924;28.194;2023-10-31T09:45:23;0;0;
55485;PMS5003;71262;-25.924;28.194;2023-10-31T09:47:48;1;1;
55485;PMS5003;71262;-25.924;28.194;2023-10-31T09:52:38;0;0;
55485;PMS5003;71262;-25.924;28.194;2023-10-31T09:55:03;0;0;
55485;PMS5003;71262;-25.924;28.194;2023-10-31T09:57:28;1;0;
55485;PMS5003;71262;-25.924;28.194;2023-10-31T09:59:53;0;0;
55485;PMS5003;71262;-25.924;28.194;2023-10-31T10:02:18;1;1;
55485;PMS5003;71262;-25.924;28.194;2023-10-31T10:04:43;1;1;
55485;PMS5003;71262;-25.924;28.194;2023-10-31T10:07:08;0;0;
55485;PMS5003;71262;-25.924;28.194;2023-10-31T10:09:33;0;0;
55485;PMS5003;71262;-25.924;28.194;2023-10-31T10:11:59;0;0;
55485;PMS5003;71262;-25.924;28.194;2023-10-31T10:14:23;1;1;
55485;PMS5003;71262;-25.924;28.194;2023-10-31T10:16:48;0;0;
55485;PMS5003;71262;-25.924;28.194;2023-10-31T10:19:15;0;0;
55485;PMS5003;71262;-25.924;28.194;2023-10-31T10:24:04;0;0;
55485;PMS5003;71262;-25.924;28.194;2023-10-31T10:26:29;1;1;
55485;PMS5003;71262;-25.924;28.194;2023-10-31T10:28:54;0;0;
55485;PMS5003;71262;-25.924;28.194;2023-10-31T10:31:19;0;0;
55485;PMS5003;71262;-25.924;28.194;2023-10-31T10:33:44;1;1;
55485;PMS5003;71262;-25.924;28.194;2023-10-31T10:36:09;0;0;
55485;PMS5003;71262;-25.924;28.194;2023-10-31T10:38:34;1;1;
55485;PMS5003;71262;-25.924;28.194;2023-10-31T10:40:59;1;1;
55485;PMS5003;71262;-25.924;28.194;2023-10-31T10:43:25;1;1;
55485;PMS5003;71262;-25.924;28.194;2023-10-31T10:45:51;12;12;
55485;PMS5003;71262;-25.924;28.194;2023-10-31T10:48:15;22;21;
55485;PMS5003;71262;-25.924;28.194;2023-10-31T10:50:42;27;23;
55485;PMS5003;71262;-25.924;28.194;2023-10-31T10:53:07;36;32;
55485;PMS5003;71262;-25.924;28.194;2023-10-31T10:55:32;35;31;
55485;PMS5003;71262;-25.924;28.194;2023-10-31T10:58:00;46;41;
55485;PMS5003;71262;-25.924;28.194;2023-10-31T11:00:23;45;44;
55485;PMS5003;71262;-25.924;28.194;2023-10-31T11:02:48;67;56;
55485;PMS5003;71262;-25.924;28.194;2023-10-31T11:05:13;63;55;
55485;PMS5003;71262;-25.924;28.194;2023-10-31T11:07:39;56;49;
55485;PMS5003;71262;-25.924;28.194;2023-10-31T11:10:05;64;50;
55485;PMS5003;71262;-25.924;28.194;2023-10-31T11:12:30;61;52;
55485;PMS5003;71262;-25.924;28.194;2023-10-31T11:14:56;60;48;
55485;PMS5003;71262;-25.924;28.194;2023-10-31T11:17:23;53;45;
55485;PMS5003;71262;-25.924;28.194;2023-10-31T11:19:47;56;44;
55485;PMS5003;71262;-25.924;28.194;2023-10-31T11:22:12;62;53;
55485;PMS5003;71262;-25.924;28.194;2023-10-31T11:24:37;60;49;
55485;PMS5003;71262;-25.924;28.194;2023-10-31T11:27:04;52;47;
55485;PMS5003;71262;-25.924;28.194;2023-10-31T11:29:28;50;42;
55485;PMS5003;71262;-25.924;28.194;2023-10-31T11:31:54;52;45;
55485;PMS5003;71262;-25.924;28.194;2023-10-31T11:34:19;51;40;
55485;PMS5003;71262;-25.924;28.194;2023-10-31T11:36:45;55;46;
55485;PMS5003;71262;-25.924;28.194;2023-10-31T11:39:11;45;39;
55485;PMS5003;71262;-25.924;28.194;2023-10-31T11:41:38;54;45;
55485;PMS5003;71262;-25.924;28.194;2023-10-31T11:44:02;57;48;
55485;PMS5003;71262;-25.924;28.194;2023-10-31T11:46:28;32;30;
55485;PMS5003;71262;-25.924;28.194;2023-10-31T11:48:53;53;48;
55485;PMS5003;71262;-25.924;28.194;2023-10-31T11:51:19;34;30;
55485;PMS5003;71262;-25.924;28.194;2023-10-31T11:53:44;61;53;
55485;PMS5003;71262;-25.924;28.194;2023-10-31T11:56:10;44;39;
55485;PMS5003;71262;-25.924;28.194;2023-10-31T11:58:35;38;31;
55485;PMS5003;71262;-25.924;28.194;2023-10-31T12:01:02;30;23;
55485;PMS5003;71262;-25.924;28.194;2023-10-31T12:03:26;31;31;
55485;PMS5003;71262;-25.924;28.194;2023-10-31T12:05:52;45;44;
55485;PMS5003;71262;-25.924;28.194;2023-10-31T12:10:42;48;41;
55485;PMS5003;71262;-25.924;28.194;2023-10-31T12:13:08;25;23;
55485;PMS5003;71262;-25.924;28.194;2023-10-31T12:15:34;35;32;
55485;PMS5003;71262;-25.924;28.194;2023-10-31T12:17:59;38;32;
55485;PMS5003;71262;-25.924;28.194;2023-10-31T12:20:25;24;19;
55485;PMS5003;71262;-25.924;28.194;2023-10-31T12:25:16;18;17;
55485;PMS5003;71262;-25.924;28.194;2023-10-31T12:27:42;17;16;
55485;PMS5003;71262;-25.924;28.194;2023-10-31T12:30:07;24;24;
55485;PMS5003;71262;-25.924;28.194;2023-10-31T12:32:31;15;14;
55485;PMS5003;71262;-25.924;28.194;2023-10-31T12:34:56;15;13;
55485;PMS5003;71262;-25.924;28.194;2023-10-31T12:37:22;15;14;
55485;PMS5003;71262;-25.924;28.194;2023-10-31T12:39:47;12;11;
55485;PMS5003;71262;-25.924;28.194;2023-10-31T12:42:12;16;13;
55485;PMS5003;71262;-25.924;28.194;2023-10-31T12:44:38;16;14;
55485;PMS5003;71262;-25.924;28.194;2023-10-31T12:47:06;30;26;
55485;PMS5003;71262;-25.924;28.194;2023-10-31T12:49:29;29;21;
55485;PMS5003;71262;-25.924;28.194;2023-10-31T12:51:55;12;11;
55485;PMS5003;71262;-25.924;28.194;2023-10-31T12:56:45;19;14;
55485;PMS5003;71262;-25.924;28.194;2023-10-31T12:59:10;12;11;
55485;PMS5003;71262;-25.924;28.194;2023-10-31T13:01:35;11;11;
55485;PMS5003;71262;-25.924;28.194;2023-10-31T13:04:00;8;8;
55485;PMS5003;71262;-25.924;28.194;2023-10-31T13:06:26;13;8;
55485;PMS5003;71262;-25.924;28.194;2023-10-31T13:08:51;9;8;
55485;PMS5003;71262;-25.924;28.194;2023-10-31T13:11:16;8;7;
55485;PMS5003;71262;-25.924;28.194;2023-10-31T13:13:42;7;6;
55485;PMS5003;71262;-25.924;28.194;2023-10-31T13:16:07;7;6;
55485;PMS5003;71262;-25.924;28.194;2023-10-31T13:18:32;5;4;
55485;PMS5003;71262;-25.924;28.194;2023-10-31T13:20:57;5;4;
55485;PMS5003;71262;-25.924;28.194;2023-10-31T13:23:22;7;5;
55485;PMS5003;71262;-25.924;28.194;2023-10-31T13:25:47;4;4;
55485;PMS5003;71262;-25.924;28.194;2023-10-31T13:28:13;5;5;
55485;PMS5003;71262;-25.924;28.194;2023-10-31T13:30:38;7;5;
55485;PMS5003;71262;-25.924;28.194;2023-10-31T13:33:03;5;5;
55485;PMS5003;71262;-25.924;28.194;2023-10-31T13:35:28;3;3;
55485;PMS5003;71262;-25.924;28.194;2023-10-31T13:37:53;5;5;
55485;PMS5003;71262;-25.924;28.194;2023-10-31T13:40:18;3;3;
55485;PMS5003;71262;-25.924;28.194;2023-10-31T13:42:43;3;3;
55485;PMS5003;71262;-25.924;28.194;2023-10-31T13:45:08;5;4;
55485;PMS5003;71262;-25.924;28.194;2023-10-31T13:47:33;3;3;
55485;PMS5003;71262;-25.924;28.194;2023-10-31T13:49:58;2;2;
55485;PMS5003;71262;-25.924;28.194;2023-10-31T13:52:23;3;3;
55485;PMS5003;71262;-25.924;28.194;2023-10-31T13:54:48;3;3;
55485;PMS5003;71262;-25.924;28.194;2023-10-31T13:57:13;3;3;
55485;PMS5003;71262;-25.924;28.194;2023-10-31T13:59:39;2;2;
55485;PMS5003;71262;-25.924;28.194;2023-10-31T14:02:04;3;3;
55485;PMS5003;71262;-25.924;28.194;2023-10-31T14:04:29;3;2;
55485;PMS5003;71262;-25.924;28.194;2023-10-31T14:06:54;3;3;
55485;PMS5003;71262;-25.924;28.194;2023-10-31T14:09:19;5;4;
55485;PMS5003;71262;-25.924;28.194;2023-10-31T14:11:44;2;2;
55485;PMS5003;71262;-25.924;28.194;2023-10-31T14:14:09;4;3;
55485;PMS5003;71262;-25.924;28.194;2023-10-31T14:16:34;5;4;
55485;PMS5003;71262;-25.924;28.194;2023-10-31T14:18:59;5;4;
55485;PMS5003;71262;-25.924;28.194;2023-10-31T14:21:24;6;6;
55485;PMS5003;71262;-25.924;28.194;2023-10-31T14:23:49;5;5;
55485;PMS5003;71262;-25.924;28.194;2023-10-31T14:26:14;4;4;
55485;PMS5003;71262;-25.924;28.194;2023-10-31T14:28:39;4;4;
55485;PMS5003;71262;-25.924;28.194;2023-10-31T14:31:05;5;4;
55485;PMS5003;71262;-25.924;28.194;2023-10-31T14:33:30;4;3;
55485;PMS5003;71262;-25.924;28.194;2023-10-31T14:35:55;6;5;
55485;PMS5003;71262;-25.924;28.194;2023-10-31T14:38:20;7;6;
55485;PMS5003;71262;-25.924;28.194;2023-10-31T14:40:45;5;5;
55485;PMS5003;71262;-25.924;28.194;2023-10-31T14:43:10;4;4;
55485;PMS5003;71262;-25.924;28.194;2023-10-31T14:45:36;5;4;
55485;PMS5003;71262;-25.924;28.194;2023-10-31T14:48:01;6;6;
55485;PMS5003;71262;-25.924;28.194;2023-10-31T14:50:26;7;4;
55485;PMS5003;71262;-25.924;28.194;2023-10-31T14:52:51;4;4;
55485;PMS5003;71262;-25.924;28.194;2023-10-31T14:55:16;6;5;
55485;PMS5003;71262;-25.924;28.194;2023-10-31T14:57:41;4;4;
55485;PMS5003;71262;-25.924;28.194;2023-10-31T15:00:07;5;5;
55485;PMS5003;71262;-25.924;28.194;2023-10-31T15:02:31;5;5;
55485;PMS5003;71262;-25.924;28.194;2023-10-31T15:04:56;5;5;
55485;PMS5003;71262;-25.924;28.194;2023-10-31T15:07:21;4;3;
55485;PMS5003;71262;-25.924;28.194;2023-10-31T15:09:46;5;5;
55485;PMS5003;71262;-25.924;28.194;2023-10-31T15:12:11;5;5;
55485;PMS5003;71262;-25.924;28.194;2023-10-31T15:14:38;5;5;
55485;PMS5003;71262;-25.924;28.194;2023-10-31T15:17:02;3;3;
55485;PMS5003;71262;-25.924;28.194;2023-10-31T15:19:27;3;3;
55485;PMS5003;71262;-25.924;28.194;2023-10-31T15:21:52;3;3;
55485;PMS5003;71262;-25.924;28.194;2023-10-31T15:24:17;4;3;
55485;PMS5003;71262;-25.924;28.194;2023-10-31T15:26:42;3;3;
55485;PMS5003;71262;-25.924;28.194;2023-10-31T15:29:07;5;4;
55485;PMS5003;71262;-25.924;28.194;2023-10-31T15:31:32;2;2;
55485;PMS5003;71262;-25.924;28.194;2023-10-31T15:33:57;6;5;
55485;PMS5003;71262;-25.924;28.194;2023-10-31T15:36:22;3;3;
55485;PMS5003;71262;-25.924;28.194;2023-10-31T15:38:47;4;4;
55485;PMS5003;71262;-25.924;28.194;2023-10-31T15:41:12;4;4;
55485;PMS5003;71262;-25.924;28.194;2023-10-31T15:43:37;5;5;
55485;PMS5003;71262;-25.924;28.194;2023-10-31T15:46:02;5;5;
55485;PMS5003;71262;-25.924;28.194;2023-10-31T15:48:27;5;4;
55485;PMS5003;71262;-25.924;28.194;2023-10-31T15:50:52;4;4;
55485;PMS5003;71262;-25.924;28.194;2023-10-31T15:53:18;4;3;
55485;PMS5003;71262;-25.924;28.194;2023-10-31T15:55:43;5;4;
55485;PMS5003;71262;-25.924;28.194;2023-10-31T15:58:08;2;2;
55485;PMS5003;71262;-25.924;28.194;2023-10-31T16:00:33;3;3;
55485;PMS5003;71262;-25.924;28.194;2023-10-31T16:02:58;4;4;
55485;PMS5003;71262;-25.924;28.194;2023-10-31T16:05:23;3;2;
55485;PMS5003;71262;-25.924;28.194;2023-10-31T16:07:48;6;5;
55485;PMS5003;71262;-25.924;28.194;2023-10-31T16:10:13;4;4;
55485;PMS5003;71262;-25.924;28.194;2023-10-31T16:12:38;3;3;
55485;PMS5003;71262;-25.924;28.194;2023-10-31T16:15:03;3;3;